Koewacht, Netherlands
Current Conditions -  °F | °C
As of 3:50 PM on Wednesday 22 Oct 2014 (Local Time) from EBAW Reporting Station
Scattered Clouds Scattered Clouds  
Wind Chill: 54°   Ceiling: Unl
Heat Index: 54°   Visibility: 6mi
Dew Point: 45°   Wind: 20mph
Humidity: 72%   Direction: 300°WNW
Pressure: 30.15"   Gusts: NA
Location:  51.23°N, 3.97°E
Report Text: EBAW 221350Z 30017KT 9999 SCT033 12/07 Q1021 NOSIG
Loading
Personal Weather Stations






























Interactive Weather Map
Tropical Storm Tracking
New forecast layout! Learn more

10-Day Weather Forecast

Advertisements
Track Severe Weather on mobile